createdAt,value
2018-04-02T00:04:45.150Z,92.40
2018-04-02T00:09:48.749Z,92.80
2018-04-02T00:14:52.362Z,92.10
2018-04-02T00:19:55.974Z,94.10
2018-04-02T00:24:59.263Z,94.10
2018-04-02T00:30:02.572Z,95.00
2018-04-02T00:35:06.249Z,95.70
2018-04-02T00:40:09.500Z,95.70
2018-04-02T00:45:12.876Z,95.70
2018-04-02T00:50:16.183Z,96.00
2018-04-02T00:55:19.973Z,95.60
2018-04-02T01:00:23.187Z,95.00
2018-04-02T01:05:26.502Z,95.00
2018-04-02T01:10:30.413Z,95.10
2018-04-02T01:15:34.229Z,95.50
2018-04-02T01:20:37.461Z,95.50
2018-04-02T01:25:41.092Z,95.20
2018-04-02T01:30:44.298Z,95.20
2018-04-02T01:35:47.519Z,96.20
2018-04-02T01:40:50.805Z,96.70
2018-04-02T01:45:54.025Z,97.90
2018-04-02T01:50:57.228Z,97.90
2018-04-02T01:56:00.447Z,97.70
2018-04-02T02:01:03.668Z,97.50
2018-04-02T02:06:06.921Z,96.90
2018-04-02T02:11:10.144Z,97.50
2018-04-02T02:16:13.560Z,98.10
2018-04-02T02:21:16.761Z,98.10
2018-04-02T02:26:20.006Z,98.70
2018-04-02T02:31:23.236Z,98.60
2018-04-02T02:36:26.845Z,98.30
2018-04-02T02:41:30.610Z,98.50
2018-04-02T02:46:33.846Z,98.50
2018-04-02T02:51:37.083Z,98.60
2018-04-02T02:56:40.789Z,98.50
2018-04-02T03:01:44.032Z,98.50
2018-04-02T03:06:47.247Z,98.60
2018-04-02T03:11:51.489Z,98.70
2018-04-02T03:16:54.697Z,98.70
2018-04-02T03:21:57.927Z,98.60
2018-04-02T03:27:01.146Z,98.50
2018-04-02T03:32:04.365Z,98.40
2018-04-02T03:37:07.965Z,98.40
2018-04-02T03:42:11.211Z,98.40
2018-04-02T03:47:14.428Z,98.60
2018-04-02T03:52:17.632Z,98.80
2018-04-02T03:57:20.868Z,98.90
2018-04-02T04:02:24.094Z,99.00
2018-04-02T04:07:27.300Z,98.60
2018-04-02T04:12:30.525Z,98.00
2018-04-02T04:17:34.134Z,97.50
2018-04-02T04:22:37.794Z,97.10
2018-04-02T04:27:41.032Z,97.10
2018-04-02T04:32:44.349Z,97.10
2018-04-02T04:37:47.965Z,97.30
2018-04-02T04:42:51.196Z,97.30
2018-04-02T04:47:54.409Z,97.80
2018-04-02T04:52:58.087Z,98.20
2018-04-02T04:58:01.290Z,98.20
2018-04-02T05:03:04.715Z,98.10
2018-04-02T05:08:08.348Z,98.10
2018-04-02T05:13:11.589Z,98.10
2018-04-02T05:18:14.797Z,97.80
2018-04-02T05:23:18.112Z,97.60
2018-04-02T05:28:21.446Z,97.40
2018-04-02T05:33:24.665Z,97.10
2018-04-02T05:38:28.370Z,96.50
2018-04-02T05:43:31.673Z,96.50
2018-04-02T05:48:34.874Z,96.20
2018-04-02T05:53:38.103Z,95.60
2018-04-02T05:58:41.726Z,95.00
2018-04-02T06:03:44.982Z,95.00
2018-04-02T06:08:48.246Z,94.50
2018-04-02T06:13:51.460Z,93.30
2018-04-02T06:18:54.689Z,93.00
2018-04-02T06:23:57.910Z,92.40
2018-04-02T06:29:01.135Z,91.60
2018-04-02T06:34:04.355Z,91.00
2018-04-02T06:39:08.018Z,88.80
2018-04-02T06:44:11.239Z,88.80
2018-04-02T06:49:14.467Z,88.00
2018-04-02T06:54:18.431Z,86.50
2018-04-02T06:59:21.667Z,85.40
2018-04-02T07:04:24.884Z,84.00
2018-04-02T07:09:28.216Z,82.60
2018-04-02T07:14:31.445Z,81.00
2018-04-02T07:19:34.659Z,80.00
2018-04-02T07:24:37.884Z,78.70
2018-04-02T07:29:41.111Z,78.50
2018-04-02T07:34:44.935Z,78.30
2018-04-02T07:39:48.361Z,77.80
2018-04-02T07:44:51.650Z,76.80
2018-04-02T07:49:54.890Z,76.60
2018-04-02T07:54:58.502Z,75.10
2018-04-02T08:00:02.118Z,79.70
2018-04-02T08:05:05.785Z,80.10
2018-04-02T08:10:08.997Z,80.10
2018-04-02T08:15:12.221Z,79.50
2018-04-02T08:20:15.467Z,80.40
2018-04-02T08:25:18.771Z,79.50
2018-04-02T08:30:21.988Z,80.40
2018-04-02T08:35:25.384Z,79.80
2018-04-02T08:40:31.206Z,81.10
2018-04-02T08:45:36.396Z,81.50
2018-04-02T08:50:40.095Z,80.00
2018-04-02T08:55:44.392Z,80.00
2018-04-02T09:00:47.852Z,80.80
2018-04-02T09:05:52.271Z,79.20
2018-04-02T09:10:59.665Z,78.60
2018-04-02T09:16:02.884Z,78.60
2018-04-02T09:21:06.488Z,76.00
2018-04-02T09:26:12.689Z,76.00
2018-04-02T09:31:16.016Z,77.90
2018-04-02T09:36:19.318Z,78.50
2018-04-02T09:41:22.546Z,77.50
2018-04-02T09:46:25.877Z,77.90
2018-04-02T09:51:29.160Z,77.60
2018-04-02T09:56:32.404Z,77.30
2018-04-02T10:01:35.671Z,76.40
2018-04-02T10:06:38.895Z,75.40
2018-04-02T10:11:42.132Z,75.10
2018-04-02T10:16:45.750Z,74.00
2018-04-02T10:21:49.406Z,73.50
2018-04-02T10:26:52.891Z,73.50
2018-04-02T10:31:56.482Z,73.30
2018-04-02T10:37:02.119Z,73.60
2018-04-02T10:42:05.672Z,71.60
2018-04-02T10:52:23.437Z,70.50
2018-04-02T10:57:26.678Z,69.70
2018-04-02T11:02:30.066Z,68.60
2018-04-02T11:07:33.314Z,68.10
2018-04-02T11:12:36.648Z,65.60
2018-04-02T11:17:39.929Z,66.00
2018-04-02T11:22:43.167Z,66.20
2018-04-02T11:27:46.400Z,64.40
2018-04-02T11:32:51.296Z,57.50
2018-04-02T11:37:54.541Z,57.50
2018-04-02T11:42:58.250Z,53.40
2018-04-02T11:48:01.971Z,51.60
2018-04-02T11:53:05.684Z,50.50
2018-04-02T11:58:09.054Z,50.50
2018-04-02T12:03:12.268Z,51.20
2018-04-02T12:08:15.490Z,51.50
2018-04-02T12:13:18.779Z,49.00
2018-04-02T12:18:22.238Z,48.80
2018-04-02T12:23:25.879Z,47.90
2018-04-02T12:28:29.228Z,47.90
2018-04-02T12:33:32.590Z,48.90
2018-04-02T12:38:35.949Z,47.10
2018-04-02T12:43:39.555Z,46.20
2018-04-02T12:48:43.398Z,46.00
2018-04-02T12:53:46.685Z,46.10
2018-04-02T12:58:49.909Z,47.60
2018-04-02T13:03:53.186Z,44.30
2018-04-02T13:08:56.764Z,42.20
2018-04-02T13:13:59.992Z,45.60
2018-04-02T13:19:03.275Z,46.80
2018-04-02T13:24:06.489Z,47.30
2018-04-02T13:29:09.769Z,49.80
2018-04-02T13:34:12.995Z,51.40
2018-04-02T13:39:16.223Z,52.00
2018-04-02T13:44:19.439Z,52.60
2018-04-02T13:49:23.028Z,50.60
2018-04-02T13:54:26.235Z,50.30
2018-04-02T13:59:29.471Z,51.00
2018-04-02T14:04:35.411Z,49.70
2018-04-02T14:09:39.256Z,47.60
2018-04-02T14:14:42.591Z,47.50
2018-04-02T14:19:45.862Z,47.20
2018-04-02T14:24:49.082Z,47.60
2018-04-02T14:29:52.413Z,48.80
2018-04-02T14:34:55.655Z,50.80
2018-04-02T14:39:59.625Z,50.40
2018-04-02T14:45:03.049Z,50.70
2018-04-02T14:50:07.231Z,50.40
2018-04-02T14:55:10.488Z,49.80
2018-04-02T15:00:14.142Z,49.10
2018-04-02T15:05:17.404Z,49.10
2018-04-02T15:10:20.708Z,51.20
2018-04-02T15:15:24.231Z,52.10
2018-04-02T15:20:27.940Z,50.30
2018-04-02T15:25:31.453Z,50.10
2018-04-02T15:30:34.688Z,51.20
2018-04-02T15:35:37.941Z,53.30
2018-04-02T15:40:41.239Z,54.00
2018-04-02T15:45:45.537Z,55.50
2018-04-02T15:50:48.844Z,56.00
2018-04-02T15:55:52.456Z,56.40
2018-04-02T16:00:55.868Z,56.40
2018-04-02T16:05:59.152Z,55.70
2018-04-02T16:11:02.817Z,57.30
2018-04-02T16:16:06.070Z,57.30
2018-04-02T16:21:09.768Z,58.70
2018-04-02T16:26:13.199Z,58.60
2018-04-02T16:31:16.493Z,56.90
2018-04-02T16:36:20.311Z,58.80
2018-04-02T16:41:24.018Z,60.20
2018-04-02T16:46:27.714Z,59.20
2018-04-02T16:51:31.044Z,59.20
2018-04-02T16:56:34.432Z,59.70
2018-04-02T17:01:38.092Z,56.90
2018-04-02T17:06:41.797Z,56.90
2018-04-02T17:11:45.151Z,57.70
2018-04-02T17:16:48.944Z,58.70
2018-04-02T17:21:52.279Z,58.70
2018-04-02T17:26:56.082Z,60.60
2018-04-02T17:32:00.182Z,62.20
2018-04-02T17:37:03.608Z,62.20
2018-04-02T17:42:07.036Z,62.90
2018-04-02T17:47:10.289Z,63.00
2018-04-02T17:52:13.628Z,63.70
2018-04-02T17:57:17.450Z,65.70
2018-04-02T18:02:21.142Z,64.70
2018-04-02T18:07:24.483Z,64.70
2018-04-02T18:12:27.790Z,64.30
2018-04-02T18:17:31.054Z,64.20
2018-04-02T18:22:34.453Z,64.10
2018-04-02T18:27:37.862Z,66.80
2018-04-02T18:32:42.660Z,67.30
2018-04-02T18:37:45.899Z,67.30
2018-04-02T18:42:49.777Z,67.90
2018-04-02T18:47:53.025Z,67.90
2018-04-02T18:52:56.700Z,67.90
2018-04-02T18:57:59.940Z,67.90
2018-04-02T19:03:03.608Z,68.30
2018-04-02T19:08:06.830Z,68.30
2018-04-02T19:13:10.119Z,65.50
2018-04-02T19:18:13.354Z,66.40
2018-04-02T19:23:17.081Z,68.90
2018-04-02T19:28:20.288Z,68.90
2018-04-02T19:33:23.525Z,68.90
2018-04-02T19:38:26.857Z,69.60
2018-04-02T19:43:32.597Z,69.40
2018-04-02T19:48:35.850Z,69.40
2018-04-02T19:53:39.422Z,69.80
2018-04-02T19:58:43.061Z,69.70
2018-04-02T20:03:46.346Z,69.70
2018-04-02T20:08:50.053Z,69.50
2018-04-02T20:13:53.680Z,68.30
2018-04-02T20:18:56.909Z,68.30
2018-04-02T20:24:00.171Z,69.50
2018-04-02T20:29:03.664Z,70.00
2018-04-02T20:34:06.968Z,72.70
2018-04-02T20:39:12.353Z,73.80
2018-04-02T20:44:18.591Z,73.10
2018-04-02T20:49:22.746Z,73.30
2018-04-02T20:54:26.901Z,73.20
2018-04-02T20:59:32.898Z,73.20
2018-04-02T21:04:38.862Z,74.30
2018-04-02T21:09:43.080Z,74.40
2018-04-02T21:14:49.523Z,73.90
2018-04-02T21:19:55.256Z,72.90
2018-04-02T21:25:00.089Z,74.40
2018-04-02T21:30:05.889Z,74.40
2018-04-02T21:35:09.850Z,75.20
2018-04-02T21:40:13.572Z,75.90
2018-04-02T21:45:16.912Z,75.90
2018-04-02T21:50:20.471Z,75.80
2018-04-02T21:55:23.697Z,74.70
2018-04-02T22:00:26.972Z,73.90
2018-04-02T22:05:30.618Z,68.40
2018-04-02T22:10:33.928Z,68.40
2018-04-02T22:15:37.351Z,71.10
2018-04-02T22:20:40.790Z,73.20
2018-04-02T22:25:44.049Z,75.60
2018-04-02T22:30:48.552Z,76.20
2018-04-02T22:35:51.836Z,76.60
2018-04-02T22:40:55.544Z,73.60
2018-04-02T22:45:59.207Z,73.60
2018-04-02T22:51:06.863Z,74.60
2018-04-02T22:56:11.668Z,79.30
2018-04-02T23:01:16.535Z,81.10
2018-04-02T23:06:22.189Z,81.10
2018-04-02T23:11:25.505Z,78.40
2018-04-02T23:16:29.220Z,79.50
2018-04-02T23:21:32.892Z,77.90
2018-04-02T23:26:37.802Z,77.80
2018-04-02T23:31:41.071Z,75.20
2018-04-02T23:36:45.003Z,74.20
2018-04-02T23:41:48.291Z,74.10
2018-04-02T23:46:55.959Z,73.90
2018-04-02T23:51:59.317Z,73.90
2018-04-02T23:57:02.973Z,74.60
